createdAt,value
2023-04-04T16:40:41.601Z,48.86
2023-04-04T16:41:42.835Z,49.17
2023-04-04T16:42:44.139Z,48.17
2023-04-04T16:43:42.050Z,48.27
2023-04-04T16:44:41.218Z,47.96
2023-04-04T16:46:36.249Z,48.17
2023-04-04T16:46:42.135Z,48.17
2023-04-04T16:47:41.274Z,48.58
2023-04-04T16:48:41.308Z,48.99
2023-04-04T16:49:41.178Z,48.27
2023-04-04T16:50:41.461Z,48.79
2023-04-04T16:51:42.476Z,48.27
2023-04-04T16:52:41.278Z,48.19
2023-04-04T16:53:41.285Z,49.09
2023-04-04T16:54:41.152Z,49.11
2023-04-04T16:55:41.102Z,48.39
2023-04-04T16:56:41.258Z,48.50
2023-04-04T16:57:41.051Z,48.71
2023-04-04T16:58:41.086Z,49.32
2023-04-04T16:59:41.874Z,48.91
2023-04-04T17:00:41.422Z,49.01
2023-04-04T17:01:41.046Z,50.14
2023-04-04T17:02:40.966Z,49.63
2023-04-04T17:03:41.005Z,49.22
2023-04-04T17:04:41.956Z,48.60
2023-04-04T17:05:41.689Z,49.01
2023-04-04T17:06:41.718Z,49.22
2023-04-04T17:07:40.977Z,49.11
2023-04-04T17:08:41.514Z,49.32
2023-04-04T17:09:40.894Z,49.32
2023-04-04T17:10:41.496Z,49.43
2023-04-04T17:11:41.371Z,49.94
2023-04-04T17:12:40.908Z,49.35
2023-04-04T17:13:40.872Z,49.55
2023-04-04T17:14:41.526Z,49.96
2023-04-04T17:15:40.789Z,50.27
2023-04-04T17:16:40.830Z,50.48
2023-04-04T17:17:44.187Z,50.58
2023-04-04T17:18:40.823Z,50.89
2023-04-04T17:19:40.807Z,50.37
2023-04-04T17:20:40.860Z,50.37
2023-04-04T17:21:41.636Z,50.99
2023-04-04T17:22:40.704Z,50.99
2023-04-04T17:23:50.365Z,50.68
2023-04-04T17:24:40.657Z,51.09
2023-04-04T17:25:40.636Z,50.99
2023-04-04T17:26:40.635Z,52.43
2023-04-04T17:27:40.638Z,52.35
2023-04-04T17:28:40.577Z,51.84
2023-04-04T17:29:40.690Z,51.01
2023-04-04T17:30:57.939Z,52.04
2023-04-04T17:31:40.879Z,51.12
2023-04-04T17:32:40.713Z,51.63
2023-04-04T17:33:40.732Z,51.42
2023-04-04T17:34:41.808Z,52.45
2023-04-04T17:35:41.101Z,52.35
2023-04-04T17:36:40.604Z,51.84
2023-04-04T17:37:40.452Z,51.84
2023-04-04T17:38:40.534Z,52.25
2023-04-04T17:39:40.547Z,53.07
2023-04-04T17:40:40.959Z,53.38
2023-04-04T17:41:40.424Z,53.61
2023-04-04T17:42:40.424Z,52.58
2023-04-04T17:43:40.405Z,53.81
2023-04-04T17:44:40.402Z,53.09
2023-04-04T17:45:41.100Z,53.20
2023-04-04T17:46:40.574Z,54.64
2023-04-04T17:47:40.454Z,53.94
2023-04-04T17:48:40.440Z,55.28
2023-04-04T17:49:40.370Z,54.56
2023-04-04T17:50:40.552Z,57.03
2023-04-04T17:51:40.293Z,57.14
2023-04-04T17:52:40.324Z,52.81
2023-04-04T17:53:40.352Z,52.81
2023-04-04T17:54:40.263Z,52.50
2023-04-04T17:55:40.234Z,52.29
2023-04-04T17:56:40.237Z,52.17
2023-04-04T17:57:40.286Z,52.48
2023-04-04T17:58:40.197Z,52.37
2023-04-04T17:59:40.258Z,53.41
2023-04-04T18:00:40.504Z,52.37
2023-04-04T18:01:40.280Z,52.99
2023-04-04T18:02:40.311Z,52.91
2023-04-04T18:03:40.336Z,52.91
2023-04-04T18:04:40.099Z,53.33
2023-04-04T18:05:40.123Z,53.84
2023-04-04T18:06:48.741Z,54.25
2023-04-04T18:07:40.096Z,55.51
2023-04-04T18:08:40.118Z,55.21
2023-04-04T18:09:40.048Z,54.79
2023-04-04T18:10:40.345Z,54.10
2023-04-04T18:11:40.065Z,53.78
2023-04-04T18:12:40.097Z,53.45
2023-04-04T18:13:40.033Z,53.04
2023-04-04T18:14:40.030Z,53.45
2023-04-04T18:15:39.993Z,52.63
2023-04-04T18:16:41.162Z,53.25
2023-04-04T18:17:39.981Z,53.76
2023-04-04T18:18:40.214Z,53.97
2023-04-04T18:19:40.267Z,53.86
2023-04-04T18:20:39.903Z,54.10
2023-04-04T18:21:39.965Z,53.99
2023-04-04T18:22:40.149Z,55.02
2023-04-04T18:23:39.929Z,54.41
2023-04-04T18:24:40.026Z,55.23
2023-04-04T18:25:39.968Z,55.15
2023-04-04T18:26:39.882Z,54.74
2023-04-04T18:27:39.909Z,54.84
2023-04-04T18:28:39.824Z,55.46
2023-04-04T18:29:39.870Z,56.90
2023-04-04T18:30:40.025Z,55.07
2023-04-04T18:31:39.827Z,54.84
2023-04-04T18:32:39.769Z,54.97
2023-04-04T18:33:39.756Z,54.64
2023-04-04T18:34:39.785Z,55.87
2023-04-04T18:35:39.770Z,55.57
2023-04-04T18:36:39.701Z,55.80
2023-04-04T18:37:39.704Z,55.59
2023-04-04T18:38:39.731Z,55.90
2023-04-04T18:39:39.686Z,55.38
2023-04-04T18:40:39.831Z,55.59
2023-04-04T18:41:39.712Z,56.62
2023-04-04T18:42:39.645Z,55.90
2023-04-04T18:43:39.637Z,56.13
2023-04-04T18:44:39.630Z,56.13
2023-04-04T18:45:40.569Z,56.03
2023-04-04T18:46:39.588Z,56.03
2023-04-04T18:47:39.657Z,56.46
2023-04-04T18:48:39.602Z,56.37
2023-04-04T18:49:39.618Z,58.33
2023-04-04T18:50:39.778Z,59.69
2023-04-04T18:51:39.554Z,59.08
2023-04-04T18:52:39.496Z,59.59
2023-04-04T18:53:39.589Z,59.52
2023-04-04T18:54:39.490Z,59.72
2023-04-04T18:55:39.556Z,59.83
2023-04-04T18:56:39.491Z,60.14
2023-04-04T18:57:39.497Z,59.41
2023-04-04T18:58:39.500Z,59.83
2023-04-04T18:59:39.479Z,60.27
2023-04-04T19:00:39.686Z,60.68
2023-04-04T19:01:39.417Z,60.16
2023-04-04T19:02:39.477Z,62.44
2023-04-04T19:03:39.755Z,61.92
2023-04-04T19:04:39.442Z,61.92
2023-04-04T19:05:39.344Z,61.71
2023-04-04T19:06:39.340Z,61.10
2023-04-04T19:07:39.360Z,60.09
2023-04-04T19:08:39.341Z,60.27
2023-04-04T19:09:39.321Z,60.78
2023-04-04T19:10:39.677Z,60.99
2023-04-04T19:11:39.321Z,61.51
2023-04-04T19:12:39.277Z,61.71
2023-04-04T19:13:39.268Z,61.10
2023-04-04T19:14:39.279Z,60.99
2023-04-04T19:15:39.468Z,61.40
2023-04-04T19:16:39.309Z,61.40
2023-04-04T19:17:39.290Z,62.26
2023-04-04T19:18:39.208Z,61.74
2023-04-04T19:19:39.225Z,61.95
2023-04-04T19:20:39.167Z,61.43
2023-04-04T19:21:39.174Z,62.05
2023-04-04T19:22:39.168Z,62.26
2023-04-04T19:23:39.130Z,62.16
2023-04-04T19:24:39.113Z,62.37
2023-04-04T19:25:39.374Z,62.98
2023-04-04T19:26:39.101Z,62.67
2023-04-04T19:27:39.103Z,63.09
2023-04-04T19:28:39.088Z,63.09
2023-04-04T19:29:39.047Z,62.88
2023-04-04T19:30:39.117Z,62.67
2023-04-04T19:31:39.018Z,65.57
2023-04-04T19:32:39.183Z,61.95
2023-04-04T19:33:39.037Z,62.85
2023-04-04T19:34:38.989Z,62.65
2023-04-04T19:35:39.188Z,61.61
2023-04-04T19:36:39.036Z,61.92
2023-04-04T19:37:38.988Z,61.40
2023-04-04T19:38:38.989Z,61.40
2023-04-04T19:39:38.944Z,61.20
2023-04-04T19:40:38.921Z,61.10
2023-04-04T19:41:38.908Z,61.20
2023-04-04T19:42:38.894Z,60.99
2023-04-04T19:43:38.907Z,61.10
2023-04-04T19:44:38.904Z,61.61
2023-04-04T19:45:39.029Z,61.92
2023-04-04T19:46:38.920Z,62.37
2023-04-04T19:47:38.842Z,62.65
2023-04-04T19:48:38.819Z,62.57
2023-04-04T19:49:38.797Z,62.77
2023-04-04T19:50:38.834Z,63.71
2023-04-04T19:51:38.800Z,63.40
2023-04-04T19:52:38.771Z,62.88
2023-04-04T19:53:38.771Z,63.60
2023-04-04T19:54:41.507Z,63.09
2023-04-04T19:55:39.032Z,63.60
2023-04-04T19:56:38.764Z,63.29
2023-04-04T19:57:38.701Z,62.60
2023-04-04T19:58:38.772Z,64.15
2023-04-04T19:59:38.686Z,63.74
2023-04-04T20:00:38.929Z,62.98
2023-04-04T20:01:44.755Z,61.98
2023-04-04T20:02:39.723Z,62.60
2023-04-04T20:03:38.641Z,63.09
2023-04-04T20:04:38.668Z,62.88
2023-04-04T20:05:38.793Z,62.77
2023-04-04T20:06:38.609Z,64.32
2023-04-04T20:07:38.642Z,63.29
2023-04-04T20:08:38.613Z,63.09
2023-04-04T20:09:38.550Z,63.60
2023-04-04T20:10:38.585Z,64.64
2023-04-04T20:11:38.571Z,63.22
2023-04-04T20:12:38.541Z,64.56
2023-04-04T20:13:38.519Z,64.04
2023-04-04T20:14:38.490Z,64.87
2023-04-04T20:15:38.504Z,64.98
2023-04-04T20:16:38.527Z,64.87
2023-04-04T20:17:38.468Z,64.25
2023-04-04T20:18:38.493Z,65.05
2023-04-04T20:19:38.434Z,64.64
2023-04-04T20:20:38.582Z,64.64
2023-04-04T20:21:38.455Z,64.32
2023-04-04T20:22:38.407Z,65.16
2023-04-04T20:23:38.412Z,63.09
2023-04-04T20:24:38.368Z,63.29
2023-04-04T20:25:38.381Z,61.64
2023-04-04T20:26:38.334Z,60.58
2023-04-04T20:27:38.345Z,61.20
2023-04-04T20:28:38.367Z,60.96
2023-04-04T20:29:38.319Z,61.38
2023-04-04T20:30:38.635Z,60.96
2023-04-04T20:31:38.345Z,60.34
2023-04-04T20:32:38.316Z,60.75
2023-04-04T20:33:38.220Z,60.65
2023-04-04T20:34:38.222Z,60.44
2023-04-04T20:35:38.303Z,60.86
2023-04-04T20:36:38.179Z,60.31
2023-04-04T20:37:38.175Z,60.14
2023-04-04T20:38:38.185Z,60.44
2023-04-04T20:39:38.200Z,60.24
2023-04-04T20:40:38.260Z,60.03
2023-04-04T20:41:38.149Z,60.24
2023-04-04T20:42:38.307Z,60.44
2023-04-04T20:43:38.110Z,61.79
2023-04-04T20:44:38.090Z,60.65
2023-04-04T20:45:38.084Z,60.44
2023-04-04T20:46:38.075Z,61.10
2023-04-04T20:47:38.134Z,61.10
2023-04-04T20:48:38.046Z,61.30
2023-04-04T20:49:38.056Z,61.71
2023-04-04T20:50:38.151Z,61.64
2023-04-04T20:51:38.029Z,61.74
2023-04-04T20:52:37.992Z,61.64
2023-04-04T20:53:37.976Z,63.29
2023-04-04T20:54:38.022Z,64.04
2023-04-04T20:55:37.963Z,65.70
2023-04-04T20:56:37.924Z,66.42
2023-04-04T20:57:37.971Z,67.15
2023-04-04T20:58:37.963Z,66.97
2023-04-04T20:59:37.944Z,66.87
2023-04-04T21:00:37.995Z,65.94
2023-04-04T21:01:37.950Z,65.66
2023-04-04T21:02:37.885Z,66.38
2023-04-04T21:03:37.857Z,67.73
2023-04-04T21:04:37.895Z,68.35
2023-04-04T21:06:57.526Z,68.98
2023-04-04T21:08:06.093Z,69.11
2023-04-04T21:09:07.624Z,69.94
2023-04-04T21:10:07.495Z,69.53
2023-04-04T21:11:05.998Z,72.74
2023-04-04T21:12:07.524Z,72.32
2023-04-04T21:13:07.252Z,71.08
2023-04-04T21:13:57.482Z,70.70
2023-04-04T21:14:57.513Z,69.97
2023-04-04T21:15:57.574Z,70.07
2023-04-04T21:16:57.438Z,69.97
2023-04-04T21:17:57.529Z,70.28
2023-04-04T21:18:57.447Z,70.70
2023-04-04T21:19:57.407Z,69.97
2023-04-04T21:20:57.399Z,69.45
2023-04-04T21:21:57.373Z,69.66
2023-04-04T21:22:57.401Z,71.97
2023-04-04T21:23:57.347Z,72.91
2023-04-04T21:24:57.404Z,73.43
2023-04-04T21:25:57.425Z,73.63
2023-04-04T21:26:57.314Z,72.70
2023-04-04T21:27:57.320Z,71.39
2023-04-04T21:28:57.322Z,70.97
2023-04-04T21:29:57.285Z,70.14
2023-04-04T21:30:57.339Z,69.73
2023-04-04T21:31:57.321Z,69.83
2023-04-04T21:32:57.400Z,69.83
2023-04-04T21:33:57.299Z,70.87
2023-04-04T21:34:57.254Z,71.59
2023-04-04T21:35:57.336Z,72.97
2023-04-04T21:36:57.198Z,72.56
2023-04-04T21:37:57.168Z,72.35
2023-04-04T21:38:57.163Z,72.04
2023-04-04T21:39:57.111Z,72.77
2023-04-04T21:40:57.163Z,73.39
2023-04-04T21:41:57.092Z,73.60
2023-04-04T21:42:57.138Z,73.49
2023-04-04T21:43:57.091Z,73.60
2023-04-04T21:44:57.104Z,74.01
2023-04-04T21:45:57.169Z,74.01
2023-04-04T21:46:57.025Z,73.60
2023-04-04T21:47:57.062Z,72.66
2023-04-04T21:48:57.029Z,72.35
2023-04-04T21:49:57.032Z,72.56
2023-04-04T21:50:56.976Z,73.49
2023-04-04T21:51:57.010Z,73.60
2023-04-04T21:52:57.015Z,74.05
2023-04-04T21:53:56.949Z,75.29
2023-04-04T21:54:56.916Z,75.29
2023-04-04T21:55:56.943Z,75.81
2023-04-04T21:56:56.907Z,75.09
2023-04-04T21:57:56.890Z,74.46
2023-04-04T21:58:56.894Z,74.15
